createdAt,value
2023-03-11T00:00:49.894Z,54.40
2023-03-11T00:03:20.144Z,55.71
2023-03-11T00:05:49.899Z,54.76
2023-03-11T00:08:21.124Z,55.05
2023-03-11T00:10:53.607Z,55.53
2023-03-11T00:13:21.976Z,56.31
2023-03-11T00:15:55.760Z,55.46
2023-03-11T00:18:26.990Z,56.30
2023-03-11T00:20:57.609Z,55.53
2023-03-11T00:23:27.368Z,54.80
2023-03-11T00:25:56.257Z,55.58
2023-03-11T00:28:26.583Z,56.40
2023-03-11T00:30:55.135Z,56.70
2023-03-11T00:33:23.652Z,56.38
2023-03-11T00:35:51.932Z,57.21
2023-03-11T00:38:22.780Z,56.48
2023-03-11T00:40:51.298Z,57.11
2023-03-11T00:43:19.728Z,56.98
2023-03-11T00:45:48.285Z,57.63
2023-03-11T00:48:16.510Z,56.50
2023-03-11T00:50:44.997Z,57.29
2023-03-11T00:53:13.186Z,56.89
2023-03-11T00:55:42.817Z,57.57
2023-03-11T00:58:15.941Z,57.56
2023-03-11T01:00:48.131Z,57.14
2023-03-11T01:03:16.167Z,58.26
2023-03-11T01:05:46.073Z,57.18
2023-03-11T01:08:14.172Z,56.97
2023-03-11T01:10:43.560Z,58.19
2023-03-11T01:13:11.590Z,57.76
2023-03-11T01:15:40.031Z,56.45
2023-03-11T01:18:10.054Z,56.59
2023-03-11T01:20:39.765Z,57.32
2023-03-11T01:23:09.056Z,56.25
2023-03-11T01:25:37.946Z,56.70
2023-03-11T01:28:09.253Z,56.98
2023-03-11T01:30:40.665Z,55.75
2023-03-11T01:33:15.373Z,55.63
2023-03-11T01:35:44.203Z,55.73
2023-03-11T01:38:37.553Z,56.32
2023-03-11T01:41:07.133Z,56.50
2023-03-11T01:43:57.915Z,56.44
2023-03-11T01:46:34.845Z,56.08
2023-03-11T01:49:05.802Z,56.53
2023-03-11T01:51:42.106Z,57.19
2023-03-11T01:54:17.313Z,57.27
2023-03-11T01:56:46.330Z,56.05
2023-03-11T01:59:20.398Z,56.23
2023-03-11T02:01:59.591Z,56.29
2023-03-11T02:04:29.409Z,56.60
2023-03-11T02:06:58.264Z,56.17
2023-03-11T02:09:27.524Z,55.42
2023-03-11T02:11:56.359Z,56.14
2023-03-11T02:14:27.237Z,54.98
2023-03-11T02:16:56.149Z,55.48
2023-03-11T02:19:38.385Z,55.44
2023-03-11T02:22:07.088Z,55.38
2023-03-11T02:24:41.869Z,55.12
2023-03-11T02:27:16.173Z,55.62
2023-03-11T02:29:50.317Z,54.55
2023-03-11T02:32:20.536Z,54.81
2023-03-11T02:34:48.641Z,55.09
2023-03-11T02:37:18.422Z,54.47
2023-03-11T02:39:55.958Z,53.65
2023-03-11T02:42:29.588Z,53.45
2023-03-11T02:45:04.095Z,54.51
2023-03-11T02:47:33.272Z,53.74
2023-03-11T02:50:01.300Z,53.36
2023-03-11T02:52:32.897Z,53.24
2023-03-11T02:55:01.016Z,53.11
2023-03-11T02:57:30.488Z,53.21
2023-03-11T02:59:59.932Z,53.23
2023-03-11T03:02:27.915Z,53.17
2023-03-11T03:04:56.000Z,54.16
2023-03-11T03:07:24.462Z,53.14
2023-03-11T03:09:52.551Z,52.91
2023-03-11T03:12:20.654Z,53.58
2023-03-11T03:14:50.913Z,54.20
2023-03-11T03:17:19.657Z,54.49
2023-03-11T03:19:48.691Z,54.02
2023-03-11T03:22:16.916Z,55.72
2023-03-11T03:24:46.150Z,55.19
2023-03-11T03:27:14.194Z,54.70
2023-03-11T03:29:42.168Z,55.16
2023-03-11T03:32:11.757Z,54.56
2023-03-11T03:34:39.788Z,54.54
2023-03-11T03:37:08.269Z,54.00
2023-03-11T03:39:36.686Z,53.97
2023-03-11T03:42:05.457Z,54.24
2023-03-11T03:44:36.009Z,54.67
2023-03-11T03:47:04.044Z,55.13
2023-03-11T03:49:33.660Z,54.33
2023-03-11T03:52:02.385Z,54.42
2023-03-11T03:54:33.251Z,54.51
2023-03-11T03:57:01.948Z,54.87
2023-03-11T03:59:32.238Z,54.73
2023-03-11T04:02:02.264Z,55.64
2023-03-11T04:04:33.152Z,54.84
2023-03-11T04:07:01.332Z,54.96
2023-03-11T04:09:30.305Z,55.36
2023-03-11T04:11:59.858Z,55.19
2023-03-11T04:14:28.228Z,54.73
2023-03-11T04:17:00.264Z,54.78
2023-03-11T04:19:28.890Z,54.77
2023-03-11T04:21:58.967Z,54.61
2023-03-11T04:24:28.256Z,55.00
2023-03-11T04:26:56.567Z,54.96
2023-03-11T04:29:24.713Z,54.71
2023-03-11T04:31:54.764Z,55.13
2023-03-11T04:34:22.899Z,54.62
2023-03-11T04:36:54.014Z,55.05
2023-03-11T04:39:27.102Z,55.33
2023-03-11T04:41:55.816Z,55.53
2023-03-11T04:44:26.331Z,55.23
2023-03-11T04:46:54.448Z,55.51
2023-03-11T04:49:23.277Z,55.23
2023-03-11T04:51:53.188Z,55.45
2023-03-11T04:54:23.537Z,55.30
2023-03-11T04:56:54.095Z,54.61
2023-03-11T04:59:23.277Z,55.09
2023-03-11T05:01:52.870Z,54.94
2023-03-11T05:04:21.102Z,55.32
2023-03-11T05:06:51.059Z,54.77
2023-03-11T05:09:19.504Z,55.15
2023-03-11T05:11:47.634Z,55.06
2023-03-11T05:14:19.680Z,55.35
2023-03-11T05:16:48.140Z,55.11
2023-03-11T05:19:31.654Z,55.27
2023-03-11T05:22:03.724Z,55.16
2023-03-11T05:24:32.754Z,55.06
2023-03-11T05:27:01.388Z,55.32
2023-03-11T05:29:31.178Z,54.69
2023-03-11T05:32:00.062Z,55.00
2023-03-11T05:34:28.282Z,55.41
2023-03-11T05:36:56.441Z,54.99
2023-03-11T05:39:25.342Z,55.04
2023-03-11T05:41:53.754Z,54.99
2023-03-11T05:44:21.808Z,54.88
2023-03-11T05:46:51.368Z,55.14
2023-03-11T05:49:21.246Z,54.55
2023-03-11T05:51:51.282Z,55.01
2023-03-11T05:54:19.546Z,55.40
2023-03-11T05:56:50.339Z,54.96
2023-03-11T05:59:20.809Z,54.75
2023-03-11T06:01:57.212Z,54.76
2023-03-11T06:04:26.226Z,55.49
2023-03-11T06:06:54.686Z,55.11
2023-03-11T06:09:25.476Z,54.97
2023-03-11T06:11:54.763Z,55.32
2023-03-11T06:14:25.866Z,54.99
2023-03-11T06:16:53.925Z,54.99
2023-03-11T06:19:24.175Z,54.99
2023-03-11T06:21:53.140Z,55.45
2023-03-11T06:24:21.184Z,54.88
2023-03-11T06:26:52.967Z,54.96
2023-03-11T06:29:24.740Z,54.93
2023-03-11T06:31:53.280Z,55.19
2023-03-11T06:34:23.743Z,55.03
2023-03-11T06:36:54.654Z,55.05
2023-03-11T06:39:22.991Z,55.25
2023-03-11T06:41:52.829Z,54.83
2023-03-11T06:44:21.123Z,55.26
2023-03-11T06:46:49.234Z,54.69
2023-03-11T06:49:18.893Z,54.17
2023-03-11T06:51:48.545Z,54.69
2023-03-11T06:54:17.316Z,54.96
2023-03-11T06:56:46.361Z,54.69
2023-03-11T06:59:15.995Z,54.67
2023-03-11T07:01:44.049Z,54.40
2023-03-11T07:04:12.330Z,55.21
2023-03-11T07:06:43.377Z,55.13
2023-03-11T07:09:22.286Z,53.86
2023-03-11T07:11:50.478Z,53.85
2023-03-11T07:14:26.040Z,54.27
2023-03-11T07:16:57.126Z,54.41
2023-03-11T07:19:40.319Z,54.57
2023-03-11T07:22:08.293Z,52.85
2023-03-11T07:24:37.678Z,53.48
2023-03-11T07:27:06.117Z,54.27
2023-03-11T07:29:34.117Z,53.46
2023-03-11T07:32:02.464Z,53.99
2023-03-11T07:34:30.644Z,54.22
2023-03-11T07:36:58.736Z,54.40
2023-03-11T07:39:26.772Z,53.60
2023-03-11T07:41:56.790Z,53.49
2023-03-11T07:44:32.415Z,60.59
2023-03-11T07:47:04.140Z,65.88
2023-03-11T07:49:32.332Z,58.10
2023-03-11T07:52:00.574Z,53.82
2023-03-11T07:54:28.744Z,50.43
2023-03-11T07:56:58.104Z,49.85
2023-03-11T07:59:26.336Z,49.14
2023-03-11T08:01:54.348Z,49.87
2023-03-11T08:04:22.412Z,49.71
2023-03-11T08:06:50.481Z,50.74
2023-03-11T08:09:18.853Z,51.04
2023-03-11T08:11:49.216Z,51.20
2023-03-11T08:14:18.996Z,50.43
2023-03-11T08:16:47.010Z,49.70
2023-03-11T08:19:15.588Z,50.59
2023-03-11T08:21:43.745Z,50.69
2023-03-11T08:24:15.200Z,50.59
2023-03-11T08:26:49.129Z,50.10
2023-03-11T08:29:24.869Z,50.90
2023-03-11T08:31:55.815Z,50.79
2023-03-11T08:34:24.125Z,50.42
2023-03-11T08:36:52.311Z,49.58
2023-03-11T08:39:20.266Z,49.28
2023-03-11T08:41:49.120Z,48.92
2023-03-11T08:44:17.225Z,50.13
2023-03-11T08:46:46.945Z,48.51
2023-03-11T08:49:15.039Z,48.93
2023-03-11T08:51:43.392Z,48.55
2023-03-11T08:54:11.844Z,48.30
2023-03-11T08:56:39.961Z,48.14
2023-03-11T08:59:13.028Z,48.10
2023-03-11T09:01:42.813Z,48.38
2023-03-11T09:04:12.684Z,48.25
2023-03-11T09:06:44.300Z,48.08
2023-03-11T09:09:14.484Z,47.29
2023-03-11T09:11:42.532Z,47.97
2023-03-11T09:14:10.556Z,47.49
2023-03-11T09:16:38.700Z,46.54
2023-03-11T09:19:07.492Z,46.97
2023-03-11T09:21:37.398Z,46.53
2023-03-11T09:24:07.204Z,45.82
2023-03-11T09:26:36.531Z,47.11
2023-03-11T09:29:04.581Z,45.90
2023-03-11T09:31:32.630Z,46.74
2023-03-11T09:34:00.690Z,46.69
2023-03-11T09:36:28.736Z,47.73
2023-03-11T09:38:58.072Z,46.59
2023-03-11T09:41:55.396Z,45.30
2023-03-11T09:44:32.878Z,44.45
2023-03-11T09:47:48.369Z,43.82
2023-03-11T09:50:45.954Z,44.48
2023-03-11T09:57:20.969Z,44.71
2023-03-11T09:59:49.873Z,45.33
2023-03-11T10:02:22.340Z,44.37
2023-03-11T10:04:58.152Z,43.48
2023-03-11T10:07:34.785Z,43.54
2023-03-11T10:10:03.744Z,43.60
2023-03-11T10:12:53.302Z,44.43
2023-03-11T10:15:32.718Z,42.46
2023-03-11T10:18:19.937Z,43.74
2023-03-11T10:20:55.107Z,44.31
2023-03-11T10:23:31.069Z,43.91
2023-03-11T10:26:09.539Z,43.34
2023-03-11T10:28:47.636Z,44.06
2023-03-11T10:31:27.645Z,44.16
2023-03-11T10:34:04.136Z,44.33
2023-03-11T10:36:41.511Z,43.41
2023-03-11T10:39:18.478Z,43.13
2023-03-11T10:41:55.138Z,44.34
2023-03-11T10:44:30.262Z,44.61
2023-03-11T10:46:58.617Z,44.86
2023-03-11T10:49:27.246Z,44.52
2023-03-11T10:51:57.153Z,43.29
2023-03-11T10:54:29.907Z,42.87
2023-03-11T10:57:01.763Z,42.22
2023-03-11T10:59:48.662Z,41.67
2023-03-11T11:02:26.954Z,41.52
2023-03-11T11:05:28.996Z,41.74
2023-03-11T11:08:09.632Z,41.79
2023-03-11T11:10:43.987Z,42.14
2023-03-11T11:13:21.073Z,42.22
2023-03-11T11:16:00.558Z,41.54
2023-03-11T11:18:35.936Z,41.64
2023-03-11T11:21:08.053Z,41.74
2023-03-11T11:23:43.109Z,42.14
2023-03-11T11:26:20.322Z,41.27
2023-03-11T11:29:13.489Z,41.22
2023-03-11T11:31:46.072Z,40.82
2023-03-11T11:34:31.264Z,39.77
2023-03-11T11:37:02.486Z,40.37
2023-03-11T11:39:41.999Z,41.28
2023-03-11T11:42:14.641Z,41.17
2023-03-11T11:44:47.122Z,40.41
2023-03-11T11:47:21.027Z,38.96
2023-03-11T11:49:55.737Z,39.07
2023-03-11T11:52:28.421Z,39.20
2023-03-11T11:55:04.909Z,39.31
2023-03-11T11:57:33.452Z,38.71
2023-03-11T12:00:06.576Z,38.14
2023-03-11T12:03:03.118Z,39.52
2023-03-11T12:05:34.619Z,40.82
2023-03-11T12:08:12.957Z,40.06
2023-03-11T12:10:48.784Z,39.42
2023-03-11T12:14:02.247Z,40.39
2023-03-11T12:16:43.093Z,40.88
2023-03-11T12:19:30.940Z,39.40
2023-03-11T12:22:52.815Z,39.05
2023-03-11T12:25:34.232Z,39.70
2023-03-11T12:28:36.119Z,39.46
2023-03-11T12:31:10.015Z,40.03
2023-03-11T12:33:42.027Z,39.36
2023-03-11T12:36:25.564Z,41.06
2023-03-11T12:38:55.345Z,40.41
2023-03-11T12:41:36.859Z,40.90
2023-03-11T12:44:23.759Z,41.49
2023-03-11T12:47:23.536Z,41.97
2023-03-11T12:49:55.216Z,41.44
2023-03-11T12:52:31.734Z,41.29
2023-03-11T12:55:37.063Z,40.71
2023-03-11T12:58:42.236Z,39.75
2023-03-11T13:01:48.783Z,39.34
2023-03-11T13:04:41.288Z,38.22
2023-03-11T13:07:52.325Z,39.63
2023-03-11T13:10:37.176Z,39.57
2023-03-11T13:13:33.165Z,38.53
2023-03-11T13:16:41.575Z,39.54
2023-03-11T13:19:52.708Z,40.02
2023-03-11T13:23:00.928Z,40.65
2023-03-11T13:25:40.827Z,40.40
2023-03-11T13:28:52.819Z,40.14
2023-03-11T13:31:49.756Z,39.85
2023-03-11T13:34:25.683Z,39.95
2023-03-11T13:37:17.375Z,39.81
2023-03-11T13:39:55.864Z,39.78
2023-03-11T13:42:30.518Z,40.53
2023-03-11T13:44:59.753Z,40.70
2023-03-11T13:47:31.813Z,41.65
2023-03-11T13:50:06.490Z,41.71
2023-03-11T13:52:40.369Z,40.95
2023-03-11T13:55:20.130Z,40.81
2023-03-11T13:57:52.859Z,41.27
2023-03-11T14:00:24.096Z,41.42
2023-03-11T14:02:56.398Z,41.44
2023-03-11T14:05:27.040Z,41.00
2023-03-11T14:07:55.360Z,41.40
2023-03-11T14:10:31.483Z,41.67
2023-03-11T14:13:17.960Z,41.60
2023-03-11T14:16:10.058Z,40.95
2023-03-11T14:18:43.403Z,40.99
2023-03-11T14:21:16.760Z,41.08
2023-03-11T14:23:48.360Z,41.00
2023-03-11T14:26:22.187Z,41.61
2023-03-11T14:28:53.272Z,41.12
2023-03-11T14:31:26.667Z,40.56
2023-03-11T14:34:04.365Z,40.91
2023-03-11T14:36:42.456Z,41.44
2023-03-11T14:39:30.550Z,40.26
2023-03-11T14:42:07.778Z,40.72
2023-03-11T14:44:43.795Z,40.95
2023-03-11T14:47:22.150Z,41.27
2023-03-11T14:49:53.882Z,40.96
2023-03-11T14:52:34.510Z,41.78
2023-03-11T14:55:04.131Z,41.59
2023-03-11T14:57:39.474Z,41.28
2023-03-11T15:00:16.997Z,40.89
2023-03-11T15:03:00.503Z,40.65
2023-03-11T15:05:42.616Z,40.94
2023-03-11T15:08:11.380Z,41.56
2023-03-11T15:10:39.516Z,41.06
2023-03-11T15:13:14.593Z,41.45
2023-03-11T15:15:42.964Z,41.85
2023-03-11T15:18:24.970Z,41.07
2023-03-11T15:21:15.867Z,41.43
2023-03-11T15:23:48.818Z,41.80
2023-03-11T15:26:25.282Z,41.82
2023-03-11T15:28:59.919Z,41.63
2023-03-11T15:31:33.562Z,42.23
2023-03-11T15:34:31.958Z,41.47
2023-03-11T15:37:07.117Z,41.55
2023-03-11T15:39:50.973Z,41.83
2023-03-11T15:42:24.386Z,42.37
2023-03-11T15:45:17.303Z,42.15
2023-03-11T15:47:46.350Z,41.02
2023-03-11T15:50:27.298Z,41.33
2023-03-11T15:52:59.936Z,41.16
2023-03-11T15:55:28.671Z,41.41
2023-03-11T15:58:04.403Z,41.71
2023-03-11T16:00:33.347Z,42.43
2023-03-11T16:03:01.607Z,42.71
2023-03-11T16:05:30.496Z,41.59
2023-03-11T16:07:59.895Z,42.36
2023-03-11T16:10:28.704Z,42.53
2023-03-11T16:12:57.321Z,42.35
2023-03-11T16:15:28.772Z,42.55
2023-03-11T16:17:59.710Z,42.20
2023-03-11T16:20:34.624Z,42.06
2023-03-11T16:23:04.739Z,42.58
2023-03-11T16:25:37.121Z,42.92
2023-03-11T16:28:05.972Z,42.89
2023-03-11T16:30:36.459Z,42.52
2023-03-11T16:33:05.330Z,42.44
2023-03-11T16:35:33.873Z,42.38
2023-03-11T16:38:03.719Z,42.28
2023-03-11T16:40:32.681Z,42.41
2023-03-11T16:43:04.493Z,42.07
2023-03-11T16:45:33.096Z,42.65
2023-03-11T16:48:01.658Z,43.16
2023-03-11T16:50:30.883Z,43.40
2023-03-11T16:53:00.145Z,43.82
2023-03-11T16:55:31.943Z,43.56
2023-03-11T16:58:00.260Z,43.47
2023-03-11T17:00:31.370Z,42.74
2023-03-11T17:02:59.623Z,42.86
2023-03-11T17:05:27.956Z,43.02
2023-03-11T17:08:00.647Z,43.11
2023-03-11T17:10:30.497Z,43.21
2023-03-11T17:12:58.533Z,42.43
2023-03-11T17:15:26.905Z,43.30
2023-03-11T17:17:54.942Z,42.74
2023-03-11T17:20:23.296Z,42.68
2023-03-11T17:22:51.366Z,43.67
2023-03-11T17:25:20.007Z,43.68
2023-03-11T17:27:50.468Z,43.43
2023-03-11T17:30:35.550Z,43.51
2023-03-11T17:33:05.203Z,43.44
2023-03-11T17:35:33.752Z,43.60
2023-03-11T17:38:02.324Z,43.51
2023-03-11T17:40:31.602Z,43.70
2023-03-11T17:43:01.417Z,42.85
2023-03-11T17:45:29.600Z,43.49
2023-03-11T17:47:57.624Z,43.36
2023-03-11T17:50:26.265Z,43.72
2023-03-11T17:52:56.442Z,43.26
2023-03-11T17:55:24.875Z,43.03
2023-03-11T17:57:53.760Z,42.96
2023-03-11T18:00:25.676Z,43.22
2023-03-11T18:02:53.734Z,43.63
2023-03-11T18:05:23.015Z,44.02
2023-03-11T18:07:51.098Z,43.86
2023-03-11T18:10:19.680Z,43.98
2023-03-11T18:12:48.713Z,44.00
2023-03-11T18:15:19.295Z,44.65
2023-03-11T18:17:49.835Z,44.35
2023-03-11T18:20:18.516Z,43.92
2023-03-11T18:22:47.299Z,44.89
2023-03-11T18:25:15.681Z,44.32
2023-03-11T18:27:44.522Z,44.48
2023-03-11T18:30:15.384Z,44.83
2023-03-11T18:32:44.691Z,44.69
2023-03-11T18:35:14.135Z,44.64
2023-03-11T18:37:42.261Z,45.32
2023-03-11T18:40:12.578Z,45.64
2023-03-11T18:42:45.383Z,46.08
2023-03-11T18:45:13.937Z,46.83
2023-03-11T18:47:42.017Z,46.69
2023-03-11T18:50:13.134Z,46.62
2023-03-11T18:52:41.216Z,48.03
2023-03-11T18:55:10.175Z,47.74
2023-03-11T18:57:40.278Z,48.14
2023-03-11T19:00:11.746Z,47.53
2023-03-11T19:02:40.294Z,47.62
2023-03-11T19:05:09.825Z,46.85
2023-03-11T19:07:39.596Z,46.90
2023-03-11T19:10:09.577Z,47.25
2023-03-11T19:12:38.060Z,47.91
2023-03-11T19:15:07.977Z,48.66
2023-03-11T19:17:36.097Z,48.95
2023-03-11T19:20:08.183Z,48.75
2023-03-11T19:22:37.358Z,49.08
2023-03-11T19:25:11.360Z,49.08
2023-03-11T19:27:40.165Z,49.22
2023-03-11T19:30:10.152Z,49.09
2023-03-11T19:32:40.305Z,48.97
2023-03-11T19:35:10.876Z,49.60
2023-03-11T19:37:39.474Z,49.53
2023-03-11T19:40:11.584Z,50.64
2023-03-11T19:42:39.711Z,49.93
2023-03-11T19:45:09.153Z,50.53
2023-03-11T19:47:37.506Z,50.09
2023-03-11T19:50:06.452Z,50.68
2023-03-11T19:52:36.024Z,50.27
2023-03-11T19:55:04.608Z,51.31
2023-03-11T19:57:34.073Z,50.97
2023-03-11T20:00:02.286Z,51.34
2023-03-11T20:02:35.467Z,51.13
2023-03-11T20:05:03.824Z,51.68
2023-03-11T20:07:32.055Z,51.36
2023-03-11T20:10:00.321Z,52.15
2023-03-11T20:12:28.665Z,50.83
2023-03-11T20:14:58.274Z,51.29
2023-03-11T20:17:26.441Z,50.27
2023-03-11T20:19:54.493Z,50.73
2023-03-11T20:22:22.574Z,50.52
2023-03-11T20:24:50.558Z,50.97
2023-03-11T20:27:18.721Z,50.10
2023-03-11T20:29:46.721Z,49.61
2023-03-11T20:32:16.217Z,49.45
2023-03-11T20:34:44.320Z,50.21
2023-03-11T20:37:12.790Z,50.33
2023-03-11T20:39:40.959Z,49.95
2023-03-11T20:42:09.084Z,50.28
2023-03-11T20:44:37.212Z,50.54
2023-03-11T20:47:05.455Z,50.06
2023-03-11T20:49:35.409Z,51.08
2023-03-11T20:52:03.667Z,50.62
2023-03-11T20:54:32.019Z,49.96
2023-03-11T20:57:00.127Z,50.35
2023-03-11T20:59:29.376Z,50.29
2023-03-11T21:01:57.505Z,50.56
2023-03-11T21:04:25.713Z,49.75
2023-03-11T21:06:55.427Z,50.49
2023-03-11T21:09:24.016Z,50.33
2023-03-11T21:11:55.513Z,50.50
2023-03-11T21:14:23.689Z,50.39
2023-03-11T21:16:51.819Z,51.18
2023-03-11T21:19:22.225Z,50.36
2023-03-11T21:21:51.126Z,50.31
2023-03-11T21:24:21.297Z,50.48
2023-03-11T21:26:50.366Z,51.20
2023-03-11T21:29:18.497Z,50.00
2023-03-11T21:31:48.442Z,49.06
2023-03-11T21:34:16.512Z,48.53
2023-03-11T21:36:44.605Z,47.83
2023-03-11T21:39:14.651Z,46.81
2023-03-11T21:41:44.088Z,46.58
2023-03-11T21:44:14.335Z,47.29
2023-03-11T21:46:42.607Z,46.38
2023-03-11T21:49:11.828Z,45.95
2023-03-11T21:51:40.024Z,46.18
2023-03-11T21:54:09.022Z,46.15
2023-03-11T21:56:37.482Z,45.58
2023-03-11T21:59:07.045Z,46.62
2023-03-11T22:01:36.576Z,45.52
2023-03-11T22:04:05.377Z,45.58
2023-03-11T22:06:39.307Z,45.43
2023-03-11T22:09:08.070Z,45.67
2023-03-11T22:11:40.066Z,45.33
2023-03-11T22:14:09.773Z,45.87
2023-03-11T22:16:38.756Z,45.41
2023-03-11T22:19:08.739Z,45.07
2023-03-11T22:21:36.948Z,44.86
2023-03-11T22:24:05.634Z,44.97
2023-03-11T22:26:33.689Z,45.34
2023-03-11T22:29:03.881Z,44.90
2023-03-11T22:31:33.719Z,45.57
2023-03-11T22:34:01.849Z,45.30
2023-03-11T22:36:29.976Z,45.08
2023-03-11T22:38:58.149Z,44.79
2023-03-11T22:41:26.271Z,44.76
2023-03-11T22:43:54.447Z,46.09
2023-03-11T22:46:22.669Z,44.77
2023-03-11T22:48:52.008Z,45.89
2023-03-11T22:51:20.001Z,46.58
2023-03-11T22:53:48.679Z,45.32
2023-03-11T22:56:19.253Z,45.31
2023-03-11T22:58:47.688Z,46.14
2023-03-11T23:01:16.506Z,46.11
2023-03-11T23:03:45.132Z,45.79
2023-03-11T23:06:18.109Z,46.18
2023-03-11T23:08:47.460Z,46.35
2023-03-11T23:11:20.056Z,46.10
2023-03-11T23:13:49.718Z,45.58
2023-03-11T23:16:20.358Z,46.46
2023-03-11T23:18:52.120Z,46.34
2023-03-11T23:21:24.402Z,46.32
2023-03-11T23:23:54.424Z,46.09
2023-03-11T23:26:23.338Z,46.01
2023-03-11T23:28:52.016Z,46.26
2023-03-11T23:31:22.004Z,46.26
2023-03-11T23:33:50.768Z,46.17
2023-03-11T23:36:22.295Z,46.16
2023-03-11T23:38:51.729Z,45.74
2023-03-11T23:41:23.607Z,46.77
2023-03-11T23:43:52.131Z,46.25
2023-03-11T23:46:20.638Z,45.93
2023-03-11T23:48:48.701Z,45.71
2023-03-11T23:51:16.716Z,46.58
2023-03-11T23:53:46.096Z,46.77
2023-03-11T23:56:17.789Z,46.20
2023-03-11T23:58:46.434Z,46.48
